Home > Products > Valid Products > TAF

000
FTUS43 KLBF 171700 RRA
TAFVTN
TAF
KVTN 171742Z 1718/1818 16014KT P6SM SCT070 SCT150
     FM181500 19018G26KT P6SM SCT150 SCT200=



000
FTUS43 KLBF 171700 RRA
TAFLBF
TAF
KLBF 171742Z 1718/1818 15009KT P6SM SCT070 SCT150
     FM181500 18014G22KT P6SM SCT150 SCT200=



000
FTUS43 KLBF 171100
TAFVTN
TAF
KVTN 171137Z 1712/1812 VRB04KT P6SM OVC100
     FM171500 13009KT P6SM OVC060
     FM172000 17012G18KT P6SM BKN070
     FM180100 16012KT P6SM SCT250=



000
FTUS43 KLBF 171100
TAFLBF
TAF
KLBF 171137Z 1712/1812 VRB06KT P6SM OVC014
      TEMPO 1714/1716 SCT014 OVC070
     FM171600 13006KT P6SM BKN070
     FM171900 17009G16KT P6SM OVC070
     FM180000 16012KT P6SM FEW250=



000
FTUS43 KLBF 170800 AAA
TAFVTN
TAF AMD
KVTN 170810Z 1708/1806 04010KT P6SM SCT017
      TEMPO 1708/1711 BKN017
     FM171100 04004KT P6SM OVC025
     FM171500 13009KT P6SM OVC060
     FM172000 17012G18KT P6SM BKN050
     FM180100 16013KT P6SM SCT250=



000
FTUS43 KLBF 170500
TAFVTN
TAF
KVTN 170537Z 1706/1806 04010KT P6SM OVC017
     FM171100 04004KT P6SM OVC025
     FM171500 13009KT P6SM OVC060
     FM172000 17012G18KT P6SM BKN050
     FM180100 16013KT P6SM SCT250=



000
FTUS43 KLBF 170500
TAFLBF
TAF
KLBF 170537Z 1706/1806 04009KT P6SM OVC012
     FM171400 13006KT P6SM BKN050
     FM171900 17009G16KT P6SM OVC060
     FM180000 16011KT P6SM FEW250=



000
FTUS43 KLBF 170500 AAB
TAFLBF
TAF AMD
KLBF 170505Z 1705/1724 02010KT P6SM OVC012
     FM171400 10006KT P6SM OVC060=



000
FTUS43 KLBF 170400 AAA
TAFVTN
TAF AMD
KVTN 170405Z 1704/1724 01006KT P6SM OVC017
     FM170600 04006KT 5SM BR OVC060
     FM171500 13009KT P6SM BKN060=



000
FTUS43 KLBF 170200 AAA
TAFLBF
TAF AMD
KLBF 170221Z 1702/1724 01012KT P6SM OVC019
     FM171400 10006KT P6SM OVC060=



000
FTUS43 KLBF 162300 RRA
TAFVTN
TAF
KVTN 162344Z 1700/1724 01016G21KT P6SM OVC013
     FM170200 03006KT P6SM BKN013
     FM170400 05006KT P6SM OVC025
     FM170600 04006KT 5SM BR OVC060
     FM171500 13009KT P6SM BKN060=



000
FTUS43 KLBF 162300 RRA
TAFLBF
TAF
KLBF 162344Z 1700/1724 01014G20KT P6SM BKN035
     FM170200 03006KT P6SM SCT035
     FM171400 10006KT P6SM OVC060=



000
FTUS43 KLBF 162000 AAA
TAFLBF
TAF AMD
KLBF 162020Z 1620/1718 35015G25KT P6SM BKN035
     FM170100 01014KT P6SM BKN200
     FM170700 VRB05KT P6SM SCT025 BKN100
     FM171400 12008KT P6SM BKN100=



000
FTUS43 KLBF 161900 AAA
TAFVTN
TAF AMD
KVTN 161959Z 1620/1718 33015G25KT P6SM OVC012
      TEMPO 1620/1622 OVC009
     FM170000 36012KT P6SM SCT016 BKN100
     FM170600 VRB05KT P6SM BKN100
     FM171500 13009KT P6SM BKN050=



000
FTUS43 KLBF 161700
TAFVTN
TAF
KVTN 161740Z 1618/1718 33015G25KT P6SM OVC012
      TEMPO 1618/1621 -SHRA OVC015
     FM170000 36012KT P6SM SCT016 BKN100
     FM170600 VRB05KT P6SM BKN100
     FM171500 13009KT P6SM BKN050=



000
FTUS43 KLBF 161700
TAFLBF
TAF
KLBF 161740Z 1618/1718 32020G30KT P6SM BKN035
      TEMPO 1619/1620 -SHRA
     FM170100 01014KT P6SM BKN200
     FM170700 VRB05KT P6SM SCT025 BKN100
     FM171400 12008KT P6SM BKN100=



000
FTUS43 KLBF 161400 AAA
TAFLBF
TAF AMD
KLBF 161417Z 1614/1712 32018G28KT P6SM SCT025 BKN150
      TEMPO 1614/1616 BKN025
     FM161600 32020G30KT P6SM BKN070
     FM170100 01014KT P6SM BKN200=



000
FTUS43 KLBF 161300 AAB
TAFVTN
TAF AMD
KVTN 161348Z 1614/1712 32014G23KT P6SM SCT015 BKN035
      TEMPO 1614/1616 4SM -SHRA BKN015
     FM161600 33021G32KT P6SM OVC016
      TEMPO 1620/1624 SCT016
     FM170000 36012KT P6SM SCT016=



000
FTUS43 KLBF 161200 AAA
TAFLBF
TAF AMD
KLBF 161252Z 1613/1712 32018G28KT P6SM SCT120 BKN200
     FM161600 32020G30KT P6SM BKN070
     FM170100 01014KT P6SM BKN200=



000
FTUS43 KLBF 161200 AAA
TAFVTN
TAF AMD
KVTN 161236Z 1613/1712 32014G23KT P6SM SCT090 BKN200
      TEMPO 1613/1616 3SM -SHRA OVC024
     FM161600 33021G32KT P6SM OVC016
      TEMPO 1620/1624 SCT016
     FM170000 36012KT P6SM SCT016=



000
FTUS43 KLBF 161100
TAFVTN
TAF
KVTN 161120Z 1612/1712 32014G23KT P6SM SCT090 BKN200
      TEMPO 1612/1616 5SM -SHRA OVC024
     FM161600 33021G32KT P6SM OVC016
      TEMPO 1620/1624 SCT016
     FM170000 36012KT P6SM SCT016=



000
FTUS43 KLBF 161100
TAFLBF
TAF
KLBF 161120Z 1612/1712 13004KT P6SM BKN200
     FM161600 32020G30KT P6SM BKN070
     FM170100 01014KT P6SM BKN200=



000
FTUS43 KLBF 161000 AAA
TAFVTN
TAF AMD
KVTN 161046Z 1611/1706 31021G27KT P6SM OVC150
      TEMPO 1611/1613 6SM -SHRA OVC024
     FM162000 34021G31KT P6SM OVC050
     FM170100 36016KT P6SM BKN050=



000
FTUS43 KLBF 160900 AAA
TAFLBF
TAF AMD
KLBF 160904Z 1609/1706 26007KT P6SM SCT120
     FM161200 28014G21KT P6SM BKN200
     FM161600 32020G30KT P6SM BKN100
     FM170100 01017KT P6SM BKN200=



000
FTUS43 KLBF 160600 CCA
TAFLBF
TAF COR
KLBF 160602Z 1606/1706 19015KT P6SM BKN200
     FM161000 28014G21KT P6SM BKN200
     FM161600 32020G30KT P6SM BKN100
     FM170100 01017KT P6SM BKN200=



000
FTUS43 KLBF 160500
TAFVTN
TAF
KVTN 160520Z 1606/1706 29014KT P6SM OVC100
      TEMPO 1606/1609 VRB06KT
     FM161100 32021G31KT P6SM OVC050
      TEMPO 1614/1618 4SM -SHRASN OVC020
     FM162000 34021G31KT P6SM OVC050
     FM170100 36016KT P6SM BKN050=



000
FTUS43 KLBF 160500
TAFLBF
TAF
KLBF 160520Z 1606/1706 21015KT P6SM BKN200
     FM161000 28014G21KT P6SM BKN200
     FM161600 32020G30KT P6SM BKN100
     FM170100 01017KT P6SM BKN200=



000
FTUS43 KLBF 152300
TAFLBF
TAF
KLBF 152330Z 1600/1624 23010KT P6SM BKN200
     FM160900 28014G21KT P6SM SCT200
     FM161600 32020G30KT P6SM BKN050=



000
FTUS43 KLBF 152300
TAFVTN
TAF
KVTN 152330Z 1600/1624 23010KT P6SM BKN200
      TEMPO 1600/1602 24012G20KT
     FM160700 29014KT P6SM OVC050
     FM161100 32021G30KT P6SM SCT025 OVC050 PROB30 1611/1617 4SM
      -SHRASN OVC015
     FM161800 34021G30KT P6SM OVC050=



000
FTUS43 KLBF 151700
TAFVTN
TAF
KVTN 151728Z 1518/1618 21017G25KT P6SM SCT200
     FM160000 21013KT P6SM BKN200
     FM160700 29014G21KT P6SM OVC050
     FM161100 31021G30KT P6SM SCT025 OVC050=



000
FTUS43 KLBF 151700
TAFLBF
TAF
KLBF 151728Z 1518/1618 21017G25KT P6SM SCT200
     FM160000 21008G15KT P6SM OVC200
     FM160900 30014G21KT P6SM BKN200
     FM161600 32020G30KT P6SM BKN100=



000
FTUS43 KLBF 151100
TAFLBF
TAF
KLBF 151120Z 1512/1612 VRB04KT P6SM SKC
     FM151400 19010KT P6SM SKC
     FM151700 21017G25KT P6SM FEW200
     FM160000 21008KT P6SM SCT200
     FM160900 30014G21KT P6SM BKN200=



000
FTUS43 KLBF 151100
TAFVTN
TAF
KVTN 151120Z 1512/1612 17009KT P6SM SKC
     FM151700 21017G26KT P6SM SCT200
     FM160000 21010KT P6SM BKN200
     FM160700 29014G21KT P6SM OVC050=



000
FTUS43 KLBF 150500
TAFLBF
TAF
KLBF 150520Z 1506/1606 VRB06KT P6SM SKC
     FM151600 21012G20KT P6SM SCT200
     FM160000 21007KT P6SM BKN200=



000
FTUS43 KLBF 150500
TAFVTN
TAF
KVTN 150520Z 1506/1606 VRB06KT P6SM SKC
     FM151400 18012KT P6SM SCT200
     FM151900 21017G26KT P6SM BKN200
     FM160000 21014KT P6SM BKN200=



000
FTUS43 KLBF 142300
TAFVTN
TAF
KVTN 142327Z 1500/1524 34015G24KT P6SM SCT060
     FM150100 VRB06KT P6SM SKC
     FM151400 18012KT P6SM SCT200
     FM151900 21017G26KT P6SM BKN200=



000
FTUS43 KLBF 142300
TAFLBF
TAF
KLBF 142327Z 1500/1524 32014G23KT P6SM BKN080
     FM150100 VRB06KT P6SM SKC
     FM151600 21012G20KT P6SM SCT200=



    US Dept of Commerce
    National Oceanic and Atmospheric Administration
    National Weather Service
    1325 East West Highway
    Silver Spring, MD 20910
    Page Author: NWS Internet Services Team
Disclaimer
Information Quality
Credits
Glossary
Privacy Policy
Freedom of Information Act (FOIA)
About Us
Career Opportunities